METAR Data
IDs: Format: Raw Decoded Include TAF

Data at: 1918 UTC 19 Aug 2019

METAR for:KAUN (Auburn Muni, CA, US)
Text:KAUN 191855Z AUTO 24005KT 10SM CLR 26/13 A2998 RMK A01
Temperature: 26.0°C ( 79°F)
Dewpoint: 13.0°C ( 55°F) [RH = 45%]
Pressure (altimeter):29.98 inches Hg (1015.3 mb)
Winds:from the WSW (240 degrees) at 6 MPH (5 knots; 2.6 m/s)
Visibility:10 or more sm (16+ km)
Ceiling:at least 12,000 feet AGL
Clouds:sky clear below 12,000 feet AGL
QC Flag:automated observation with no human augmentation